createdAt,value
2022-09-23T00:00:29.459Z,77.80
2022-09-23T00:01:34.373Z,77.90
2022-09-23T00:02:37.805Z,77.90
2022-09-23T00:03:46.219Z,77.90
2022-09-23T00:04:50.015Z,77.90
2022-09-23T00:06:00.130Z,77.90
2022-09-23T00:07:02.509Z,77.90
2022-09-23T00:08:06.985Z,78.00
2022-09-23T00:09:09.323Z,78.00
2022-09-23T00:10:12.835Z,78.00
2022-09-23T00:11:18.849Z,78.00
2022-09-23T00:12:22.112Z,78.00
2022-09-23T00:13:25.120Z,77.90
2022-09-23T00:14:28.703Z,77.90
2022-09-23T00:15:31.286Z,77.90
2022-09-23T00:16:36.508Z,77.90
2022-09-23T00:17:39.922Z,77.90
2022-09-23T00:18:44.438Z,77.90
2022-09-23T00:19:48.786Z,78.00
2022-09-23T00:20:55.954Z,78.00
2022-09-23T00:21:59.300Z,78.00
2022-09-23T00:23:01.722Z,78.00
2022-09-23T00:24:05.521Z,78.10
2022-09-23T00:25:10.341Z,78.10
2022-09-23T00:26:19.076Z,78.10
2022-09-23T00:27:21.600Z,78.00
2022-09-23T00:28:25.097Z,78.00
2022-09-23T00:29:27.938Z,78.00
2022-09-23T00:30:31.335Z,78.10
2022-09-23T00:31:33.837Z,78.10
2022-09-23T00:32:38.137Z,78.10
2022-09-23T00:33:41.190Z,78.00
2022-09-23T00:34:47.906Z,78.00
2022-09-23T00:35:50.261Z,78.10
2022-09-23T00:36:55.139Z,78.10
2022-09-23T00:37:57.398Z,78.00
2022-09-23T00:39:00.925Z,78.00
2022-09-23T00:40:03.965Z,78.00
2022-09-23T00:41:07.541Z,78.00
2022-09-23T00:42:16.338Z,78.00
2022-09-23T00:43:21.809Z,78.00
2022-09-23T00:44:49.688Z,78.10
2022-09-23T00:45:55.066Z,78.00
2022-09-23T00:46:59.010Z,77.90
2022-09-23T00:48:05.093Z,78.00
2022-09-23T00:49:14.626Z,77.90
2022-09-23T00:50:24.744Z,77.90
2022-09-23T00:51:34.516Z,77.90
2022-09-23T00:52:41.050Z,77.90
2022-09-23T00:53:49.546Z,77.90
2022-09-23T00:54:55.308Z,77.90
2022-09-23T00:56:07.408Z,77.80
2022-09-23T00:58:20.700Z,77.80
2022-09-23T00:59:24.457Z,77.80
2022-09-23T01:00:30.800Z,77.80
2022-09-23T01:01:33.479Z,77.80
2022-09-23T01:02:37.722Z,77.80
2022-09-23T01:03:44.024Z,77.80
2022-09-23T01:04:52.366Z,77.80
2022-09-23T01:05:56.207Z,77.70
2022-09-23T01:07:00.267Z,77.70
2022-09-23T01:08:07.276Z,77.70
2022-09-23T01:09:10.584Z,77.80
2022-09-23T01:10:14.872Z,77.80
2022-09-23T01:11:38.508Z,77.80
2022-09-23T01:13:07.996Z,77.80
2022-09-23T01:14:32.123Z,77.70
2022-09-23T01:15:47.524Z,77.70
2022-09-23T01:17:00.019Z,77.70
2022-09-23T01:18:16.520Z,77.80
2022-09-23T01:19:47.591Z,77.80
2022-09-23T01:21:02.188Z,77.80
2022-09-23T01:22:13.439Z,77.80
2022-09-23T01:24:03.638Z,77.80
2022-09-23T01:25:29.081Z,77.80
2022-09-23T01:26:53.054Z,77.80
2022-09-23T01:28:30.291Z,77.90
2022-09-23T01:30:16.739Z,78.00
2022-09-23T01:31:29.486Z,78.00
2022-09-23T01:32:46.920Z,78.10
2022-09-23T01:33:57.744Z,78.10
2022-09-23T01:35:10.201Z,78.10
2022-09-23T01:36:24.491Z,78.10
2022-09-23T01:37:35.441Z,78.10
2022-09-23T01:38:51.052Z,78.10
2022-09-23T01:40:03.435Z,78.10
2022-09-23T01:41:37.698Z,78.10
2022-09-23T01:42:46.424Z,78.10
2022-09-23T01:43:58.785Z,78.20
2022-09-23T01:45:11.028Z,78.20
2022-09-23T01:46:27.905Z,78.20
2022-09-23T01:47:35.642Z,78.20
2022-09-23T01:48:44.651Z,78.20
2022-09-23T01:49:55.283Z,78.20
2022-09-23T01:51:07.628Z,78.30
2022-09-23T01:52:18.138Z,78.30
2022-09-23T01:53:32.903Z,78.30
2022-09-23T01:54:42.144Z,78.40
2022-09-23T01:55:48.630Z,78.30
2022-09-23T01:56:58.779Z,78.30
2022-09-23T01:58:07.441Z,78.40
2022-09-23T01:59:17.921Z,78.40
2022-09-23T02:00:24.670Z,78.40
2022-09-23T02:01:36.318Z,78.40
2022-09-23T02:02:44.253Z,78.50
2022-09-23T02:03:55.486Z,78.50
2022-09-23T02:05:05.029Z,78.50
2022-09-23T02:06:14.288Z,78.50
2022-09-23T02:07:23.552Z,78.50
2022-09-23T02:08:29.523Z,78.50
2022-09-23T02:09:39.831Z,78.40
2022-09-23T02:10:47.351Z,78.50
2022-09-23T02:11:53.149Z,78.50
2022-09-23T02:13:05.461Z,78.60
2022-09-23T02:14:16.734Z,78.60
2022-09-23T02:15:23.756Z,78.60
2022-09-23T02:16:34.973Z,78.60
2022-09-23T02:17:43.692Z,78.60
2022-09-23T02:18:54.089Z,78.60
2022-09-23T02:20:04.146Z,78.50
2022-09-23T02:21:09.557Z,78.40
2022-09-23T02:22:19.091Z,78.50
2022-09-23T02:23:27.627Z,78.40
2022-09-23T02:24:34.896Z,78.30
2022-09-23T02:25:47.993Z,78.40
2022-09-23T02:26:56.354Z,78.30
2022-09-23T02:28:09.038Z,78.30
2022-09-23T02:29:26.892Z,78.30
2022-09-23T02:30:38.964Z,78.30
2022-09-23T02:31:51.101Z,78.20
2022-09-23T02:33:02.062Z,78.10
2022-09-23T02:34:18.724Z,78.10
2022-09-23T02:35:33.201Z,78.10
2022-09-23T02:36:47.032Z,78.00
2022-09-23T02:38:00.617Z,78.10
2022-09-23T02:39:09.821Z,78.00
2022-09-23T02:40:17.501Z,77.90
2022-09-23T02:41:32.564Z,78.00
2022-09-23T02:42:47.856Z,78.10
2022-09-23T02:43:57.708Z,78.00
2022-09-23T02:45:00.288Z,78.00
2022-09-23T02:46:04.768Z,78.00
2022-09-23T02:47:08.931Z,78.00
2022-09-23T02:48:17.370Z,77.90
2022-09-23T02:49:23.431Z,77.90
2022-09-23T02:50:26.858Z,78.00
2022-09-23T02:51:30.081Z,78.00
2022-09-23T02:52:36.749Z,77.90
2022-09-23T02:53:39.781Z,77.90
2022-09-23T02:54:43.213Z,77.90
2022-09-23T02:55:45.718Z,77.80
2022-09-23T02:56:49.922Z,77.80
2022-09-23T02:57:54.702Z,77.80
2022-09-23T02:58:58.858Z,77.80
2022-09-23T03:00:02.257Z,77.80
2022-09-23T03:01:20.018Z,77.90
2022-09-23T03:02:57.670Z,77.90
2022-09-23T03:04:14.784Z,77.90
2022-09-23T03:05:24.114Z,78.00
2022-09-23T03:06:35.337Z,78.10
2022-09-23T03:07:53.085Z,78.20
2022-09-23T03:09:03.107Z,78.10
2022-09-23T03:10:15.862Z,78.10
2022-09-23T03:11:19.147Z,78.20
2022-09-23T03:12:36.154Z,78.30
2022-09-23T03:13:54.120Z,78.50
2022-09-23T03:15:06.838Z,78.50
2022-09-23T03:16:20.800Z,78.40
2022-09-23T03:17:32.977Z,78.50
2022-09-23T03:18:42.862Z,78.50
2022-09-23T03:19:52.217Z,78.60
2022-09-23T03:21:03.163Z,78.60
2022-09-23T03:22:11.550Z,78.60
2022-09-23T03:23:23.559Z,78.50
2022-09-23T03:24:27.642Z,78.50
2022-09-23T03:25:35.000Z,78.50
2022-09-23T03:26:45.182Z,78.50
2022-09-23T03:27:59.157Z,78.40
2022-09-23T03:29:04.440Z,78.50
2022-09-23T03:30:10.670Z,78.50
2022-09-23T03:31:15.371Z,78.70
2022-09-23T03:32:24.208Z,78.70
2022-09-23T03:33:28.945Z,78.60
2022-09-23T03:34:37.056Z,78.60
2022-09-23T03:36:03.395Z,78.70
2022-09-23T03:37:18.082Z,78.70
2022-09-23T03:38:24.465Z,78.60
2022-09-23T03:39:40.257Z,78.60
2022-09-23T03:40:47.782Z,78.60
2022-09-23T03:41:53.994Z,78.50
2022-09-23T03:43:01.127Z,78.50
2022-09-23T03:44:04.029Z,78.50
2022-09-23T03:45:12.971Z,78.50
2022-09-23T03:46:16.814Z,78.50
2022-09-23T03:47:24.786Z,78.40
2022-09-23T03:48:30.537Z,78.40
2022-09-23T03:49:39.859Z,78.40
2022-09-23T03:50:42.449Z,78.50
2022-09-23T03:51:45.738Z,78.40
2022-09-23T03:52:50.475Z,78.60
2022-09-23T03:53:53.910Z,78.40
2022-09-23T03:54:56.474Z,78.40
2022-09-23T03:55:59.809Z,78.40
2022-09-23T03:57:04.014Z,78.30
2022-09-23T03:58:08.719Z,78.20
2022-09-23T03:59:11.060Z,78.20
2022-09-23T04:00:16.835Z,78.20
2022-09-23T04:01:19.230Z,78.20
2022-09-23T04:02:22.795Z,78.20
2022-09-23T04:03:29.303Z,78.10
2022-09-23T04:04:34.276Z,78.10
2022-09-23T04:05:36.718Z,78.10
2022-09-23T04:06:40.102Z,78.20
2022-09-23T04:07:43.683Z,78.40
2022-09-23T04:08:46.223Z,78.30
2022-09-23T04:09:49.502Z,78.30
2022-09-23T04:10:54.857Z,78.30
2022-09-23T04:11:58.444Z,78.40
2022-09-23T04:13:00.704Z,78.50
2022-09-23T04:14:04.427Z,78.40
2022-09-23T04:15:08.052Z,78.50
2022-09-23T04:16:11.412Z,78.60
2022-09-23T04:17:14.194Z,78.50
2022-09-23T04:18:17.623Z,78.50
2022-09-23T04:19:20.052Z,78.60
2022-09-23T04:20:26.017Z,78.60
2022-09-23T04:21:31.585Z,78.60
2022-09-23T04:22:35.104Z,78.60
2022-09-23T04:23:37.652Z,78.70
2022-09-23T04:24:40.932Z,78.70
2022-09-23T04:25:45.843Z,78.80
2022-09-23T04:26:53.670Z,78.80
2022-09-23T04:27:56.159Z,78.70
2022-09-23T04:28:59.628Z,78.50
2022-09-23T04:30:02.291Z,78.40
2022-09-23T04:31:06.743Z,78.50
2022-09-23T04:32:09.124Z,78.40
2022-09-23T04:33:13.480Z,78.30
2022-09-23T04:34:17.345Z,78.30
2022-09-23T04:35:20.811Z,78.30
2022-09-23T04:36:24.985Z,78.70
2022-09-23T04:37:28.301Z,78.70
2022-09-23T04:38:30.603Z,78.60
2022-09-23T04:39:36.313Z,78.50
2022-09-23T04:40:39.097Z,78.40
2022-09-23T04:41:45.937Z,78.60
2022-09-23T04:42:48.853Z,78.50
2022-09-23T04:43:52.145Z,78.60
2022-09-23T04:44:57.857Z,78.50
2022-09-23T04:46:02.309Z,78.40
2022-09-23T04:47:05.067Z,78.30
2022-09-23T04:48:09.547Z,78.40
2022-09-23T04:49:14.656Z,78.30
2022-09-23T04:50:18.213Z,78.20
2022-09-23T04:51:25.776Z,78.30
2022-09-23T04:52:32.351Z,78.20
2022-09-23T04:53:37.392Z,78.10
2022-09-23T04:54:42.464Z,78.20
2022-09-23T04:55:47.377Z,78.20
2022-09-23T04:56:50.749Z,78.10
2022-09-23T04:57:53.298Z,78.30
2022-09-23T04:58:58.215Z,78.20
2022-09-23T05:00:00.755Z,78.20
2022-09-23T05:01:11.490Z,78.20
2022-09-23T05:02:17.379Z,78.20
2022-09-23T05:03:19.756Z,78.20
2022-09-23T05:04:23.147Z,78.10
2022-09-23T05:05:27.175Z,78.10
2022-09-23T05:06:32.995Z,77.90
2022-09-23T05:07:35.834Z,77.90
2022-09-23T05:08:39.085Z,77.90
2022-09-23T05:09:41.584Z,78.10
2022-09-23T05:10:46.053Z,78.00
2022-09-23T05:11:48.602Z,77.90
2022-09-23T05:12:56.927Z,77.90
2022-09-23T05:14:01.343Z,77.90
2022-09-23T05:15:05.219Z,77.90
2022-09-23T05:16:12.854Z,78.00
2022-09-23T05:17:15.730Z,78.20
2022-09-23T05:18:21.725Z,78.10
2022-09-23T05:19:24.504Z,78.20
2022-09-23T05:20:28.038Z,78.30
2022-09-23T05:21:32.909Z,78.20
2022-09-23T05:22:35.431Z,78.20
2022-09-23T05:23:42.809Z,78.20
2022-09-23T05:24:45.100Z,78.20
2022-09-23T05:25:48.968Z,78.30
2022-09-23T05:26:54.481Z,78.20
2022-09-23T05:27:56.944Z,78.20
2022-09-23T05:29:00.992Z,78.10
2022-09-23T05:30:03.932Z,78.00
2022-09-23T05:31:17.163Z,78.00
2022-09-23T05:32:23.177Z,78.10
2022-09-23T05:33:25.797Z,78.00
2022-09-23T05:34:29.697Z,78.00
2022-09-23T05:35:32.149Z,77.90
2022-09-23T05:36:41.918Z,77.80
2022-09-23T05:37:44.280Z,77.70
2022-09-23T05:38:49.227Z,77.70
2022-09-23T05:39:52.662Z,77.80
2022-09-23T05:40:59.554Z,77.90
2022-09-23T05:42:02.985Z,77.90
2022-09-23T05:43:05.374Z,77.80
2022-09-23T05:44:09.070Z,77.80
2022-09-23T05:45:12.575Z,77.90
2022-09-23T05:46:19.674Z,77.80
2022-09-23T05:47:23.145Z,77.90
2022-09-23T05:48:25.524Z,77.90
2022-09-23T05:49:48.307Z,77.80
2022-09-23T05:50:51.924Z,77.90
2022-09-23T05:51:58.196Z,77.80
2022-09-23T05:53:03.625Z,77.70
2022-09-23T05:54:07.419Z,77.70
2022-09-23T05:55:11.765Z,77.80
2022-09-23T05:56:19.683Z,77.80
2022-09-23T05:57:24.266Z,77.80
2022-09-23T05:58:27.730Z,77.70
2022-09-23T05:59:33.860Z,77.70
2022-09-23T06:00:36.345Z,77.90
2022-09-23T06:01:39.915Z,78.10
2022-09-23T06:02:47.968Z,78.00
2022-09-23T06:03:51.483Z,78.00
2022-09-23T06:04:54.838Z,78.00
2022-09-23T06:05:57.666Z,78.00
2022-09-23T06:07:03.804Z,78.00
2022-09-23T06:08:06.462Z,78.10
2022-09-23T06:09:14.671Z,78.10
2022-09-23T06:10:17.425Z,78.10
2022-09-23T06:11:21.666Z,78.00
2022-09-23T06:12:25.143Z,78.00
2022-09-23T06:13:28.595Z,77.90
2022-09-23T06:14:32.093Z,77.90
2022-09-23T06:15:34.842Z,77.80
2022-09-23T06:16:38.482Z,77.90
2022-09-23T06:17:40.895Z,77.90
2022-09-23T06:18:46.910Z,77.90
2022-09-23T06:19:49.305Z,77.90
2022-09-23T06:20:55.080Z,77.70
2022-09-23T06:21:58.973Z,77.70
2022-09-23T06:23:08.757Z,77.80
2022-09-23T06:24:18.159Z,77.70
2022-09-23T06:25:23.062Z,77.60
2022-09-23T06:26:26.424Z,77.50
2022-09-23T06:27:29.754Z,77.60
2022-09-23T06:28:33.156Z,77.60
2022-09-23T06:29:37.055Z,77.50
2022-09-23T06:30:39.984Z,77.40
2022-09-23T06:31:45.838Z,77.50
2022-09-23T06:32:50.622Z,77.40
2022-09-23T06:34:07.810Z,77.40
2022-09-23T06:35:25.015Z,77.40
2022-09-23T06:36:40.316Z,77.10
2022-09-23T06:37:47.370Z,77.10
2022-09-23T06:38:53.257Z,77.20
2022-09-23T06:39:56.951Z,77.10
2022-09-23T06:40:59.352Z,77.00
2022-09-23T06:42:02.766Z,77.00
2022-09-23T06:43:05.207Z,77.00
2022-09-23T06:44:08.807Z,77.00
2022-09-23T06:45:15.468Z,76.90
2022-09-23T06:46:19.078Z,76.90
2022-09-23T06:47:22.439Z,76.80
2022-09-23T06:48:25.615Z,76.80
2022-09-23T06:49:28.958Z,76.80
2022-09-23T06:50:31.799Z,76.80
2022-09-23T06:51:35.225Z,76.80
2022-09-23T06:52:37.939Z,76.70
2022-09-23T06:53:41.623Z,76.60
2022-09-23T06:54:49.213Z,76.50
2022-09-23T06:55:59.579Z,76.50
2022-09-23T06:57:03.004Z,76.40
2022-09-23T06:58:05.389Z,76.30
2022-09-23T06:59:10.684Z,76.30
2022-09-23T07:00:14.325Z,76.20
2022-09-23T07:01:19.831Z,76.20
2022-09-23T07:02:25.952Z,76.10
2022-09-23T07:03:28.653Z,76.10
2022-09-23T07:04:34.471Z,76.00
2022-09-23T07:05:38.490Z,76.10
2022-09-23T07:06:42.100Z,75.90
2022-09-23T07:07:47.722Z,75.90
2022-09-23T07:08:51.359Z,75.90
2022-09-23T07:09:56.399Z,75.70
2022-09-23T07:11:01.363Z,75.70
2022-09-23T07:12:08.200Z,75.70
2022-09-23T07:13:16.252Z,75.50
2022-09-23T07:14:19.932Z,75.50
2022-09-23T07:15:22.408Z,75.40
2022-09-23T07:16:26.275Z,75.30
2022-09-23T07:17:28.729Z,75.20
2022-09-23T07:18:37.381Z,75.00
2022-09-23T07:19:41.252Z,74.90
2022-09-23T07:20:45.126Z,74.80
2022-09-23T07:21:48.930Z,74.80
2022-09-23T07:23:00.477Z,74.70
2022-09-23T07:24:05.182Z,74.60
2022-09-23T07:25:12.304Z,74.50
2022-09-23T07:26:17.406Z,74.30
2022-09-23T07:27:20.075Z,74.20
2022-09-23T07:28:24.019Z,74.10
2022-09-23T07:29:39.104Z,73.90
2022-09-23T07:30:58.053Z,73.80
2022-09-23T07:32:13.088Z,73.50
2022-09-23T07:33:30.921Z,73.30
2022-09-23T07:34:36.429Z,73.20
2022-09-23T07:35:41.459Z,73.00
2022-09-23T07:36:44.834Z,72.70
2022-09-23T07:37:47.177Z,72.40
2022-09-23T07:38:50.851Z,72.20
2022-09-23T07:39:56.326Z,72.00
2022-09-23T07:41:04.760Z,71.80
2022-09-23T07:42:08.659Z,71.40
2022-09-23T07:43:13.944Z,71.20
2022-09-23T07:44:20.272Z,71.00
2022-09-23T07:45:23.554Z,70.70
2022-09-23T07:46:28.521Z,70.40
2022-09-23T07:47:31.924Z,70.20
2022-09-23T07:48:38.315Z,69.90
2022-09-23T07:49:41.845Z,69.80
2022-09-23T07:50:44.272Z,69.60
2022-09-23T07:51:48.098Z,69.60
2022-09-23T07:52:52.975Z,69.40
2022-09-23T07:53:57.548Z,69.40
2022-09-23T07:55:00.053Z,69.20
2022-09-23T07:56:06.770Z,69.30
2022-09-23T07:58:13.186Z,69.10
2022-09-23T07:59:19.478Z,68.50
2022-09-23T08:00:21.933Z,68.70
2022-09-23T08:01:25.293Z,68.60
2022-09-23T08:02:29.038Z,68.40
2022-09-23T08:03:31.637Z,68.40
2022-09-23T08:04:35.263Z,68.30
2022-09-23T08:05:38.282Z,68.20
2022-09-23T08:06:43.715Z,67.70
2022-09-23T08:07:49.512Z,67.70
2022-09-23T08:08:58.682Z,67.40
2022-09-23T08:10:01.969Z,67.40
2022-09-23T08:11:10.303Z,67.40
2022-09-23T08:12:16.721Z,67.30
2022-09-23T08:13:19.186Z,67.30
2022-09-23T08:14:23.501Z,67.30
2022-09-23T08:15:27.162Z,67.30
2022-09-23T08:16:32.931Z,67.20
2022-09-23T08:17:35.360Z,67.10
2022-09-23T08:18:39.350Z,66.90
2022-09-23T08:19:41.741Z,66.80
2022-09-23T08:20:48.360Z,66.60
2022-09-23T08:21:54.557Z,66.70
2022-09-23T08:22:57.345Z,66.50
2022-09-23T08:24:01.208Z,66.60
2022-09-23T08:25:07.085Z,66.60
2022-09-23T08:26:19.970Z,66.50
2022-09-23T08:27:24.856Z,66.30
2022-09-23T08:28:28.263Z,66.20
2022-09-23T08:29:31.679Z,66.20
2022-09-23T08:30:34.197Z,66.10
2022-09-23T08:31:38.241Z,66.10
2022-09-23T08:32:40.587Z,65.80
2022-09-23T08:33:44.491Z,65.70
2022-09-23T08:34:47.886Z,65.70
2022-09-23T08:35:50.675Z,65.80
2022-09-23T08:36:54.173Z,65.70
2022-09-23T08:37:56.672Z,65.50
2022-09-23T08:39:00.373Z,65.20
2022-09-23T08:40:03.484Z,64.80
2022-09-23T08:41:18.334Z,64.40
2022-09-23T08:42:33.459Z,64.30
2022-09-23T08:43:37.495Z,64.20
2022-09-23T08:44:51.589Z,64.40
2022-09-23T08:45:59.239Z,64.40
2022-09-23T08:47:15.173Z,64.50
2022-09-23T08:48:26.605Z,64.50
2022-09-23T08:49:39.910Z,64.60
2022-09-23T08:50:45.383Z,64.40
2022-09-23T08:51:50.769Z,64.30
2022-09-23T08:52:58.128Z,64.20
2022-09-23T08:54:02.279Z,63.90
2022-09-23T08:55:06.270Z,63.80
2022-09-23T08:56:20.682Z,63.70
2022-09-23T08:57:38.214Z,64.00
2022-09-23T08:58:54.936Z,63.80
2022-09-23T08:59:58.143Z,63.40
2022-09-23T09:01:11.960Z,63.20
2022-09-23T09:02:21.434Z,62.70
2022-09-23T09:03:34.536Z,62.40
2022-09-23T09:04:44.494Z,61.90
2022-09-23T09:05:53.918Z,61.10
2022-09-23T09:08:39.223Z,60.00
2022-09-23T09:09:49.056Z,59.20
2022-09-23T09:10:54.473Z,59.00
2022-09-23T09:12:05.887Z,58.90
2022-09-23T09:13:24.660Z,58.60
2022-09-23T09:14:33.285Z,58.60
2022-09-23T09:15:43.690Z,58.60
2022-09-23T09:17:01.652Z,58.90
2022-09-23T09:18:14.114Z,59.20
2022-09-23T09:19:52.208Z,59.20
2022-09-23T09:21:01.529Z,59.70
2022-09-23T09:22:20.510Z,60.00
2022-09-23T09:23:34.298Z,60.10
2022-09-23T09:24:37.686Z,60.30
2022-09-23T09:25:47.579Z,60.70
2022-09-23T09:26:50.383Z,60.90
2022-09-23T09:27:57.011Z,61.00
2022-09-23T09:29:30.883Z,61.20
2022-09-23T09:30:34.889Z,61.50
2022-09-23T09:31:43.614Z,61.70
2022-09-23T09:32:51.923Z,62.10
2022-09-23T09:34:03.801Z,62.30
2022-09-23T09:35:22.760Z,62.80
2022-09-23T09:36:36.016Z,63.00
2022-09-23T09:37:47.296Z,63.00
2022-09-23T09:38:51.320Z,62.80
2022-09-23T09:39:56.038Z,63.00
2022-09-23T09:41:10.865Z,63.00
2022-09-23T09:42:22.168Z,63.00
2022-09-23T09:43:27.017Z,63.20
2022-09-23T09:44:37.333Z,63.50
2022-09-23T09:46:02.203Z,63.50
2022-09-23T09:47:29.593Z,63.40
2022-09-23T09:48:38.457Z,63.40
2022-09-23T09:49:51.642Z,63.40
2022-09-23T09:50:56.027Z,63.40
2022-09-23T09:52:20.048Z,63.30
2022-09-23T09:53:26.619Z,63.30
2022-09-23T09:54:29.161Z,63.30
2022-09-23T09:55:32.698Z,63.00
2022-09-23T09:56:37.445Z,62.40
2022-09-23T09:57:46.396Z,62.00
2022-09-23T09:58:55.037Z,61.90
2022-09-23T09:59:58.360Z,61.80
2022-09-23T10:01:01.871Z,61.70
2022-09-23T10:02:25.541Z,61.80
2022-09-23T10:03:43.223Z,62.00
2022-09-23T10:04:46.994Z,62.20
2022-09-23T10:05:54.635Z,62.30
2022-09-23T10:07:09.437Z,62.20
2022-09-23T10:08:28.536Z,62.20
2022-09-23T10:09:36.529Z,62.20
2022-09-23T10:10:41.074Z,62.30
2022-09-23T10:12:14.979Z,62.30
2022-09-23T10:13:21.636Z,62.60
2022-09-23T10:14:26.665Z,62.70
2022-09-23T10:15:33.226Z,62.80
2022-09-23T10:16:40.375Z,62.80
2022-09-23T10:17:43.112Z,62.90
2022-09-23T10:18:55.753Z,62.50
2022-09-23T10:20:02.319Z,62.60
2022-09-23T10:21:09.571Z,62.70
2022-09-23T10:22:22.287Z,62.70
2022-09-23T10:23:33.511Z,62.70
2022-09-23T10:24:37.163Z,62.40
2022-09-23T10:25:42.950Z,62.20
2022-09-23T10:26:55.616Z,62.30
2022-09-23T10:27:59.094Z,62.30
2022-09-23T10:29:20.298Z,62.20
2022-09-23T10:30:26.732Z,62.10
2022-09-23T10:31:34.824Z,61.80
2022-09-23T10:32:44.964Z,61.50
2022-09-23T10:33:51.098Z,61.50
2022-09-23T10:34:59.149Z,61.20
2022-09-23T10:36:01.918Z,61.20
2022-09-23T10:37:17.009Z,61.30
2022-09-23T10:38:20.691Z,61.30
2022-09-23T10:39:41.707Z,61.30
2022-09-23T10:41:03.239Z,61.50
2022-09-23T10:42:43.544Z,61.50
2022-09-23T10:44:19.291Z,61.70
2022-09-23T10:45:47.888Z,62.00
2022-09-23T10:47:02.667Z,62.00
2022-09-23T10:48:15.375Z,62.00
2022-09-23T10:50:04.835Z,62.20
2022-09-23T10:51:25.493Z,62.40
2022-09-23T10:52:59.314Z,62.20
2022-09-23T10:54:12.202Z,62.20
2022-09-23T10:55:41.216Z,62.40
2022-09-23T10:56:49.556Z,62.20
2022-09-23T10:58:25.565Z,62.30
2022-09-23T10:59:56.469Z,62.00
2022-09-23T11:01:18.269Z,61.90
2022-09-23T11:02:49.168Z,61.90
2022-09-23T11:04:25.551Z,61.90
2022-09-23T11:05:40.119Z,62.10
2022-09-23T11:07:23.904Z,62.30
2022-09-23T11:08:58.724Z,62.30
2022-09-23T11:10:45.934Z,62.30
2022-09-23T11:12:08.400Z,62.30
2022-09-23T11:13:27.980Z,62.30
2022-09-23T11:15:02.043Z,62.50
2022-09-23T11:16:24.699Z,62.70
2022-09-23T11:18:07.435Z,62.80
2022-09-23T11:19:36.672Z,62.80
2022-09-23T11:20:54.698Z,62.90
2022-09-23T11:22:17.794Z,63.00
2022-09-23T11:23:51.778Z,62.80
2022-09-23T11:25:16.843Z,62.80
2022-09-23T11:26:35.614Z,62.80
2022-09-23T11:28:04.251Z,63.00
2022-09-23T11:29:37.718Z,62.90
2022-09-23T11:30:49.717Z,62.70
2022-09-23T11:32:10.421Z,62.70
2022-09-23T11:33:37.808Z,62.90
2022-09-23T11:35:12.091Z,63.10
2022-09-23T11:36:27.977Z,63.10
2022-09-23T11:37:38.188Z,63.30
2022-09-23T11:38:47.548Z,63.40
2022-09-23T11:39:57.790Z,63.70
2022-09-23T11:41:14.633Z,63.80
2022-09-23T11:42:26.479Z,64.00
2022-09-23T11:43:36.833Z,63.90
2022-09-23T11:44:50.071Z,64.00
2022-09-23T11:46:01.902Z,63.90
2022-09-23T11:47:12.376Z,63.80
2022-09-23T11:48:21.931Z,63.80
2022-09-23T11:49:32.965Z,64.00
2022-09-23T11:50:40.456Z,63.90
2022-09-23T11:52:02.943Z,63.60
2022-09-23T11:53:17.261Z,63.50
2022-09-23T11:54:26.211Z,63.50
2022-09-23T11:55:32.251Z,63.60
2022-09-23T11:56:42.716Z,63.80
2022-09-23T11:57:54.203Z,63.80
2022-09-23T11:59:01.318Z,63.90
2022-09-23T12:00:17.979Z,63.80
2022-09-23T12:01:37.021Z,64.00
2022-09-23T12:03:08.163Z,64.10
2022-09-23T12:04:24.101Z,64.00
2022-09-23T12:05:31.928Z,63.80
2022-09-23T12:06:43.194Z,63.80
2022-09-23T12:07:56.729Z,63.90
2022-09-23T12:09:05.209Z,63.90
2022-09-23T12:10:10.133Z,63.80
2022-09-23T12:11:27.652Z,63.70
2022-09-23T12:12:47.987Z,63.70
2022-09-23T12:14:00.875Z,63.50
2022-09-23T12:15:18.698Z,63.30
2022-09-23T12:17:16.177Z,63.30
2022-09-23T12:18:44.519Z,63.30
2022-09-23T12:20:25.526Z,63.20
2022-09-23T12:21:52.023Z,63.00
2022-09-23T12:23:10.844Z,62.90
2022-09-23T12:24:27.901Z,62.90
2022-09-23T12:25:46.991Z,62.90
2022-09-23T12:26:56.300Z,62.90
2022-09-23T12:28:05.713Z,63.00
2022-09-23T12:29:14.007Z,63.00
2022-09-23T12:30:21.662Z,62.90
2022-09-23T12:31:30.641Z,63.00
2022-09-23T12:32:34.562Z,63.00
2022-09-23T12:33:38.985Z,62.70
2022-09-23T12:34:49.235Z,62.60
2022-09-23T12:35:55.067Z,62.70
2022-09-23T12:37:03.259Z,62.80
2022-09-23T12:38:16.014Z,62.40
2022-09-23T12:39:31.428Z,62.30
2022-09-23T12:40:40.792Z,62.10
2022-09-23T12:41:48.681Z,62.10
2022-09-23T12:42:54.336Z,61.90
2022-09-23T12:44:02.838Z,61.50
2022-09-23T12:45:39.966Z,61.40
2022-09-23T12:46:44.668Z,61.30
2022-09-23T12:47:47.112Z,61.20
2022-09-23T12:49:03.700Z,61.00
2022-09-23T12:50:57.001Z,60.80
2022-09-23T12:52:27.068Z,60.70
2022-09-23T12:53:57.146Z,60.30
2022-09-23T12:55:51.670Z,60.20
2022-09-23T12:57:03.313Z,60.00
2022-09-23T12:58:39.390Z,60.00
2022-09-23T13:00:00.548Z,60.00
2022-09-23T13:01:17.489Z,59.80
2022-09-23T13:02:38.072Z,60.00
2022-09-23T13:04:03.976Z,60.10
2022-09-23T13:05:39.577Z,60.20
2022-09-23T13:06:57.005Z,60.20
2022-09-23T13:08:08.542Z,60.30
2022-09-23T13:09:17.116Z,60.60
2022-09-23T13:10:32.755Z,60.80
2022-09-23T13:11:41.438Z,60.90
2022-09-23T13:12:46.149Z,61.00
2022-09-23T13:13:50.229Z,61.00
2022-09-23T13:14:58.108Z,61.20
2022-09-23T13:16:15.060Z,61.40
2022-09-23T13:17:32.159Z,61.70
2022-09-23T13:19:00.495Z,61.70
2022-09-23T13:20:26.801Z,62.10
2022-09-23T13:22:09.016Z,62.20
2022-09-23T13:23:32.002Z,62.50
2022-09-23T13:24:55.158Z,62.80
2022-09-23T13:26:01.859Z,63.00
2022-09-23T13:27:17.095Z,63.00
2022-09-23T13:28:36.867Z,63.30
2022-09-23T13:29:45.435Z,63.50
2022-09-23T13:30:53.091Z,63.50
2022-09-23T13:32:01.269Z,63.50
2022-09-23T13:33:17.000Z,63.50
2022-09-23T13:34:28.720Z,63.60
2022-09-23T13:35:38.711Z,63.80
2022-09-23T13:36:46.567Z,64.00
2022-09-23T13:37:53.103Z,63.60
2022-09-23T13:39:26.604Z,64.00
2022-09-23T13:40:31.164Z,64.10
2022-09-23T13:41:37.099Z,64.20
2022-09-23T13:42:41.909Z,64.30
2022-09-23T13:43:51.881Z,64.30
2022-09-23T13:44:57.592Z,64.50
2022-09-23T13:46:08.547Z,64.50
2022-09-23T13:47:13.677Z,64.70
2022-09-23T13:48:18.008Z,64.90
2022-09-23T13:49:28.414Z,64.90
2022-09-23T13:50:34.896Z,65.00
2022-09-23T13:51:48.779Z,65.10
2022-09-23T13:52:58.157Z,65.10
2022-09-23T13:54:08.295Z,65.10
2022-09-23T13:55:29.384Z,65.40
2022-09-23T13:56:36.555Z,65.40
2022-09-23T13:57:39.282Z,65.50
2022-09-23T13:58:43.491Z,65.80
2022-09-23T13:59:46.065Z,65.90
2022-09-23T14:00:51.019Z,65.80
2022-09-23T14:02:04.786Z,65.90
2022-09-23T14:03:31.262Z,66.20
2022-09-23T14:04:39.241Z,66.20
2022-09-23T14:05:43.056Z,66.20
2022-09-23T14:06:47.450Z,66.30
2022-09-23T14:07:50.755Z,66.20
2022-09-23T14:08:56.796Z,66.20
2022-09-23T14:10:01.782Z,66.10
2022-09-23T14:11:06.938Z,66.70
2022-09-23T14:12:11.024Z,66.80
2022-09-23T14:13:25.764Z,67.00
2022-09-23T14:14:33.915Z,67.10
2022-09-23T14:15:37.972Z,67.20
2022-09-23T14:16:47.472Z,67.20
2022-09-23T14:17:57.705Z,67.20
2022-09-23T14:19:02.159Z,67.30
2022-09-23T14:20:05.027Z,67.30
2022-09-23T14:21:29.112Z,67.40
2022-09-23T14:22:37.799Z,67.50
2022-09-23T14:23:46.174Z,67.50
2022-09-23T14:24:50.513Z,67.60
2022-09-23T14:25:55.557Z,67.70
2022-09-23T14:27:02.770Z,67.70
2022-09-23T14:28:05.621Z,67.90
2022-09-23T14:29:16.453Z,67.90
2022-09-23T14:30:19.420Z,68.10
2022-09-23T14:31:25.519Z,68.20
2022-09-23T14:32:29.656Z,68.10
2022-09-23T14:33:35.251Z,68.10
2022-09-23T14:34:48.165Z,68.10
2022-09-23T14:35:55.799Z,68.20
2022-09-23T14:37:16.909Z,68.40
2022-09-23T14:38:44.589Z,68.50
2022-09-23T14:39:55.743Z,68.60
2022-09-23T14:42:38.494Z,68.80
2022-09-23T14:43:48.907Z,68.80
2022-09-23T14:44:51.617Z,69.00
2022-09-23T14:45:58.322Z,68.70
2022-09-23T14:47:03.464Z,69.10
2022-09-23T14:48:11.847Z,69.00
2022-09-23T14:49:17.541Z,69.10
2022-09-23T14:50:40.636Z,69.20
2022-09-23T14:51:51.899Z,69.20
2022-09-23T14:52:54.388Z,69.30
2022-09-23T14:54:31.473Z,69.50
2022-09-23T14:55:34.243Z,69.30
2022-09-23T14:56:43.414Z,69.80
2022-09-23T14:57:48.053Z,69.80
2022-09-23T14:58:57.466Z,70.00
2022-09-23T15:00:09.346Z,69.80
2022-09-23T15:01:42.931Z,69.80
2022-09-23T15:02:59.916Z,70.00
2022-09-23T15:04:17.070Z,69.80